Time;durP1;ratioP1;P1;durP2;ratioP2;P2;SDS_P1;SDS_P2;PMS_P1;PMS_P2;Temp;Humidity;BMP_temperature;BMP_pressure;BME280_temperature;BME280_humidity;BME280_pressure;Samples;Min_cycle;Max_cycle;Signal;HPM_P1;HPM_P2
2021/06/13 00:06:53;;;;;;;2.22;1.55;;;26.10;99.90;;;;;;20907229;28;20264;-64
2021/06/13 00:16:59;;;;;;;2.60;1.42;;;26.00;99.90;;;;;;20905761;28;20308;-65
2021/06/13 00:27:08;;;;;;;2.67;2.08;;;26.00;99.90;;;;;;20971489;28;20280;-65
2021/06/13 00:37:11;;;;;;;1.85;1.25;;;26.00;99.90;;;;;;20980874;28;20224;-66
2021/06/13 00:47:19;;;;;;;1.52;1.23;;;26.00;99.90;;;;;;20928563;28;20199;-68
2021/06/13 00:57:22;;;;;;;2.47;1.90;;;26.00;99.90;;;;;;20927838;28;20239;-67
2021/06/13 01:07:35;;;;;;;2.00;1.40;;;26.10;99.90;;;;;;20990096;23;20224;-73
2021/06/13 01:17:44;;;;;;;2.42;1.52;;;26.20;99.90;;;;;;20968062;28;20697;-74
2021/06/13 01:28:38;;;;;;;1.60;1.23;;;26.00;99.90;;;;;;20974718;28;20276;-73
2021/06/13 01:38:41;;;;;;;2.15;1.50;;;26.00;99.90;;;;;;20982908;28;20212;-72
2021/06/13 01:48:47;;;;;;;5.07;2.28;;;26.00;99.90;;;;;;20982709;28;20665;-74
2021/06/13 02:09:06;;;;;;;3.00;1.83;;;25.50;99.90;;;;;;20816888;28;20216;-68
2021/06/13 02:19:10;;;;;;;2.88;1.55;;;25.20;99.90;;;;;;20817515;28;20234;-67
2021/06/13 02:29:17;;;;;;;5.93;2.13;;;24.90;99.90;;;;;;20817341;28;20198;-67
2021/06/13 02:39:21;;;;;;;2.57;1.97;;;24.90;99.90;;;;;;20816059;28;20240;-67
2021/06/13 02:49:26;;;;;;;3.72;1.73;;;24.80;99.90;;;;;;20817625;28;20618;-67
2021/06/13 02:59:36;;;;;;;3.53;2.00;;;25.00;99.90;;;;;;20815822;28;20229;-67
2021/06/13 03:09:43;;;;;;;4.43;2.47;;;24.80;99.90;;;;;;20832426;28;20573;-67
2021/06/13 03:19:48;;;;;;;2.67;2.20;;;24.70;99.90;;;;;;20829883;28;20226;-65
2021/06/13 03:29:55;;;;;;;2.75;1.90;;;24.80;99.90;;;;;;20829482;28;20719;-68
2021/06/13 03:40:00;;;;;;;5.87;1.80;;;24.90;99.90;;;;;;20829063;28;20225;-66
2021/06/13 03:50:08;;;;;;;4.00;1.70;;;24.80;99.90;;;;;;20826129;28;20190;-67
2021/06/13 04:00:14;;;;;;;2.50;1.67;;;24.70;99.90;;;;;;20826256;28;20234;-68
2021/06/13 04:10:20;;;;;;;3.13;2.30;;;24.80;99.90;;;;;;20824036;28;20663;-69
2021/06/13 04:20:25;;;;;;;1.57;1.23;;;24.90;99.90;;;;;;20825064;28;20308;-68
2021/06/13 04:30:29;;;;;;;2.37;2.13;;;24.80;99.90;;;;;;20825102;28;20617;-67
2021/06/13 04:40:33;;;;;;;4.53;2.77;;;24.70;99.90;;;;;;20820813;28;20233;-69
2021/06/13 04:50:41;;;;;;;3.17;2.35;;;24.70;99.90;;;;;;20823126;28;20552;-66
2021/06/13 05:00:44;;;;;;;2.60;1.93;;;24.90;99.90;;;;;;20804248;28;20268;-66
2021/06/13 05:10:50;;;;;;;1.87;1.67;;;24.80;99.90;;;;;;20820037;28;20273;-68
2021/06/13 05:20:54;;;;;;;3.47;2.63;;;25.00;99.90;;;;;;20818755;28;20236;-67
2021/06/13 05:30:59;;;;;;;2.55;2.03;;;25.10;99.90;;;;;;20817942;28;20186;-68
2021/06/13 05:41:07;;;;;;;2.55;1.52;;;25.30;99.90;;;;;;20818820;28;20247;-69
2021/06/13 05:51:13;;;;;;;4.43;2.40;;;25.50;99.90;;;;;;20818013;28;20209;-67
2021/06/13 06:01:17;;;;;;;2.38;1.85;;;25.90;99.90;;;;;;20817652;28;20269;-68
2021/06/13 06:11:23;;;;;;;3.33;2.40;;;26.20;99.90;;;;;;20816979;28;20281;-67
2021/06/13 06:21:26;;;;;;;2.58;2.05;;;26.50;99.90;;;;;;20816211;28;20644;-68
2021/06/13 06:31:31;;;;;;;2.60;1.80;;;26.90;99.90;;;;;;20823254;28;20423;-68
2021/06/13 06:41:37;;;;;;;2.92;2.63;;;27.30;99.90;;;;;;20831297;28;20234;-67
2021/06/13 06:51:42;;;;;;;10.13;2.95;;;26.50;99.90;;;;;;20831312;28;20210;-66
2021/06/13 07:01:45;;;;;;;3.75;2.50;;;26.60;99.90;;;;;;20829658;28;20236;-66
2021/06/13 07:11:51;;;;;;;3.33;2.83;;;26.20;99.90;;;;;;20829581;28;20209;-66
2021/06/13 07:21:55;;;;;;;2.60;2.13;;;26.50;99.90;;;;;;20809282;28;20222;-67
2021/06/13 07:32:00;;;;;;;4.05;2.90;;;26.50;99.90;;;;;;20826080;28;20209;-66
2021/06/13 07:42:05;;;;;;;3.05;2.50;;;27.20;99.90;;;;;;20806446;28;20316;-65
2021/06/13 07:52:10;;;;;;;2.75;2.28;;;27.40;99.90;;;;;;20824655;28;21160;-67
2021/06/13 08:02:14;;;;;;;2.67;2.22;;;27.40;99.90;;;;;;20825702;28;20233;-67
2021/06/13 08:12:26;;;;;;;3.08;2.33;;;27.50;99.90;;;;;;20832907;28;20198;-66
2021/06/13 08:22:34;;;;;;;4.50;3.03;;;27.20;99.90;;;;;;20821572;28;20218;-66
2021/06/13 08:32:39;;;;;;;3.92;2.72;;;27.20;99.90;;;;;;20819264;28;20232;-65
2021/06/13 08:42:44;;;;;;;3.35;2.33;;;27.40;99.90;;;;;;20817222;28;20225;-63
2021/06/13 08:52:50;;;;;;;3.53;2.38;;;27.60;99.90;;;;;;20817947;28;20702;-66
2021/06/13 09:02:53;;;;;;;3.83;2.50;;;28.10;99.90;;;;;;20813046;28;20248;-67
2021/06/13 09:13:19;;;;;;;6.95;3.25;;;28.60;99.90;;;;;;20794045;28;20720;-66
2021/06/13 09:23:23;;;;;;;4.82;2.05;;;28.80;99.90;;;;;;20809843;28;20246;-68
2021/06/13 09:33:30;;;;;;;4.60;2.22;;;29.20;99.90;;;;;;20803240;28;20212;-66
2021/06/13 09:43:39;;;;;;;2.05;1.77;;;29.30;99.90;;;;;;20814087;28;20224;-68
2021/06/13 09:53:45;;;;;;;3.53;2.95;;;29.60;99.90;;;;;;20815919;28;20189;-67
2021/06/13 10:03:50;;;;;;;6.72;3.50;;;29.20;99.90;;;;;;20817664;28;20232;-67
2021/06/13 10:13:57;;;;;;;3.20;2.60;;;29.40;99.90;;;;;;20838786;28;20197;-68
2021/06/13 10:24:05;;;;;;;3.03;2.40;;;29.80;99.90;;;;;;20839626;28;20233;-65
2021/06/13 10:34:10;;;;;;;2.97;2.00;;;30.00;99.90;;;;;;20822151;28;20202;-67
2021/06/13 10:44:16;;;;;;;3.45;1.92;;;30.50;99.90;;;;;;20838648;28;20343;-67
2021/06/13 10:54:30;;;;;;;8.85;4.95;;;31.10;99.90;;;;;;20836603;28;20293;-67
2021/06/13 11:04:58;;;;;;;2.67;2.17;;;31.20;99.90;;;;;;20836183;28;20230;-64
2021/06/13 11:15:04;;;;;;;4.95;3.17;;;31.30;99.90;;;;;;20733934;28;20211;-67
2021/06/13 11:25:19;;;;;;;2.58;2.38;;;31.40;99.90;;;;;;20793296;28;20731;-67
2021/06/13 11:35:29;;;;;;;3.28;2.67;;;32.10;99.90;;;;;;20824295;28;20236;-65
2021/06/13 11:45:33;;;;;;;4.18;2.58;;;32.40;99.90;;;;;;20805377;28;20300;-66
2021/06/13 11:55:56;;;;;;;4.32;2.70;;;33.10;99.90;;;;;;20823179;28;20240;-64
2021/06/13 12:06:15;;;;;;;2.30;1.85;;;33.00;99.90;;;;;;20822488;28;20241;-65
2021/06/13 12:16:21;;;;;;;2.15;1.92;;;33.50;99.90;;;;;;20820789;28;20218;-68
2021/06/13 12:36:54;;;;;;;2.75;2.15;;;34.10;99.90;;;;;;20818959;28;20308;-69
2021/06/13 12:46:59;;;;;;;11.70;2.53;;;34.60;99.90;;;;;;20815377;28;20200;-65
2021/06/13 12:57:09;;;;;;;3.95;2.78;;;34.50;99.90;;;;;;20818262;28;20313;-67
2021/06/13 13:07:13;;;;;;;7.05;3.55;;;34.50;99.90;;;;;;20819912;28;20250;-69
2021/06/13 13:17:28;;;;;;;2.38;1.77;;;34.80;99.90;;;;;;20819533;28;20218;-70
2021/06/13 13:27:33;;;;;;;2.67;2.08;;;35.00;99.90;;;;;;20820443;28;20202;-67
2021/06/13 13:37:52;;;;;;;3.30;2.53;;;35.20;99.90;;;;;;20800124;28;20221;-68
2021/06/13 13:48:11;;;;;;;3.97;2.90;;;34.90;99.90;;;;;;20813926;28;20246;-67
2021/06/13 13:58:18;;;;;;;2.53;2.15;;;33.80;99.90;;;;;;20801100;28;20229;-66
2021/06/13 14:08:23;;;;;;;3.97;3.30;;;34.30;99.90;;;;;;20811391;28;20218;-67
2021/06/13 14:18:31;;;;;;;3.78;2.60;;;34.50;99.90;;;;;;20812024;28;20222;-67
2021/06/13 14:28:35;;;;;;;3.25;2.95;;;34.30;99.90;;;;;;20798161;28;20198;-68
2021/06/13 14:38:40;;;;;;;5.75;3.35;;;35.10;99.90;;;;;;20811587;28;20303;-66
2021/06/13 14:48:44;;;;;;;5.30;3.17;;;35.50;99.90;;;;;;20809348;28;20202;-65
2021/06/13 14:58:49;;;;;;;6.22;3.83;;;35.00;99.90;;;;;;20823454;28;20585;-67
2021/06/13 15:08:53;;;;;;;4.25;3.25;;;35.90;99.90;;;;;;20823006;28;20364;-67
2021/06/13 15:18:59;;;;;;;3.33;3.03;;;35.40;99.90;;;;;;20822275;28;20222;-66
2021/06/13 15:29:04;;;;;;;3.42;2.78;;;35.40;99.90;;;;;;20740275;28;20195;-67
2021/06/13 15:39:09;;;;;;;3.47;3.08;;;35.70;99.90;;;;;;20811031;28;20225;-65
2021/06/13 15:49:15;;;;;;;5.03;3.08;;;35.90;99.90;;;;;;20818659;28;20280;-65
2021/06/13 15:59:29;;;;;;;5.25;3.17;;;36.60;99.90;;;;;;20817839;28;20214;-68
2021/06/13 16:09:33;;;;;;;16.33;3.75;;;37.00;99.90;;;;;;20816760;28;20197;-65
2021/06/13 16:19:38;;;;;;;5.05;4.15;;;35.80;99.90;;;;;;20814679;28;20229;-66
2021/06/13 16:29:42;;;;;;;8.57;3.00;;;35.60;99.90;;;;;;20814474;28;20196;-67
2021/06/13 16:39:48;;;;;;;8.50;5.03;;;35.70;99.90;;;;;;20814394;28;20229;-67
2021/06/13 16:49:52;;;;;;;6.68;4.70;;;34.70;99.90;;;;;;20810681;28;20194;-65
2021/06/13 16:59:57;;;;;;;5.22;3.95;;;33.80;99.90;;;;;;20815144;28;20713;-67
2021/06/13 17:10:00;;;;;;;6.97;4.85;;;34.60;99.90;;;;;;20816218;28;20194;-66
2021/06/13 17:20:10;;;;;;;4.25;3.40;;;34.50;99.90;;;;;;20815436;28;20313;-69
2021/06/13 17:30:15;;;;;;;5.93;3.30;;;33.70;99.90;;;;;;20817458;28;20348;-66
2021/06/13 17:40:20;;;;;;;5.13;4.03;;;33.20;99.90;;;;;;20816594;28;20316;-64
2021/06/13 17:50:27;;;;;;;3.83;2.58;;;32.90;99.90;;;;;;20814199;28;20208;-68
2021/06/13 18:00:32;;;;;;;2.47;2.15;;;32.20;99.90;;;;;;20807405;28;20320;-68
2021/06/13 18:10:35;;;;;;;5.65;3.05;;;32.10;99.90;;;;;;20812654;28;20272;-70
2021/06/13 18:20:40;;;;;;;3.75;2.65;;;31.10;99.90;;;;;;20812566;28;20718;-69
2021/06/13 18:30:44;;;;;;;4.93;1.90;;;31.70;99.90;;;;;;20822836;28;20186;-68
2021/06/13 18:40:49;;;;;;;2.92;2.05;;;30.80;99.90;;;;;;20826309;28;20222;-67
2021/06/13 18:50:55;;;;;;;4.72;2.75;;;29.70;99.90;;;;;;20829046;28;20226;-66
2021/06/13 19:01:02;;;;;;;7.32;2.25;;;29.60;99.90;;;;;;20825975;28;20291;-65
2021/06/13 19:11:19;;;;;;;2.08;1.80;;;28.30;99.90;;;;;;20824584;28;20194;-68
2021/06/13 19:21:24;;;;;;;4.05;1.85;;;27.70;99.90;;;;;;20824077;28;20615;-69
2021/06/13 19:31:28;;;;;;;2.58;1.77;;;27.40;99.90;;;;;;20823093;28;20198;-66
2021/06/13 19:41:34;;;;;;;6.78;2.70;;;27.20;99.90;;;;;;20815789;28;20234;-66
2021/06/13 19:51:37;;;;;;;4.05;2.17;;;27.10;99.90;;;;;;20822075;28;20282;-66
2021/06/13 20:01:43;;;;;;;11.32;2.45;;;27.00;99.90;;;;;;20820364;28;20265;-65
2021/06/13 20:11:47;;;;;;;8.47;3.00;;;26.70;99.90;;;;;;20817997;28;20422;-67
2021/06/13 20:21:52;;;;;;;1.70;1.60;;;26.70;99.90;;;;;;20820402;28;20695;-69
2021/06/13 20:31:57;;;;;;;5.50;3.72;;;26.80;99.90;;;;;;20822185;28;20198;-68
2021/06/13 20:42:02;;;;;;;2.30;1.88;;;26.60;99.90;;;;;;20821709;28;20583;-69
2021/06/13 20:52:06;;;;;;;2.17;1.90;;;26.70;99.90;;;;;;20817552;28;20222;-69
2021/06/13 21:02:12;;;;;;;2.78;2.08;;;26.30;99.90;;;;;;20819979;28;20287;-68
2021/06/13 21:12:16;;;;;;;2.38;1.67;;;26.50;99.90;;;;;;20818771;28;20199;-69
2021/06/13 21:22:21;;;;;;;2.58;1.85;;;26.20;99.90;;;;;;20801627;28;20232;-68
2021/06/13 21:32:25;;;;;;;1.90;1.38;;;26.50;99.90;;;;;;20818114;28;20193;-68
2021/06/13 21:42:30;;;;;;;4.90;2.33;;;26.50;99.90;;;;;;20873486;28;20575;-65
2021/06/13 21:52:33;;;;;;;3.13;2.10;;;26.90;99.90;;;;;;20816919;28;20285;-68
2021/06/13 22:02:38;;;;;;;4.30;1.83;;;27.40;99.90;;;;;;20813418;28;20265;-69
2021/06/13 22:12:50;;;;;;;2.72;1.85;;;27.00;99.90;;;;;;20815564;28;20313;-69
2021/06/13 22:22:55;;;;;;;1.67;1.20;;;26.80;99.90;;;;;;20814048;28;20297;-68
2021/06/13 22:32:59;;;;;;;4.18;1.50;;;26.80;99.90;;;;;;20814833;28;20285;-68
2021/06/13 22:43:05;;;;;;;1.42;1.25;;;27.10;99.90;;;;;;20815692;28;20638;-68
2021/06/13 22:53:12;;;;;;;2.78;1.45;;;27.30;99.90;;;;;;20814852;28;20202;-68
2021/06/13 23:03:19;;;;;;;3.10;1.83;;;27.30;99.90;;;;;;20813749;28;20312;-69
2021/06/13 23:13:24;;;;;;;1.85;1.60;;;27.40;99.90;;;;;;20820388;28;20277;-68
2021/06/13 23:23:29;;;;;;;3.08;1.70;;;27.30;99.90;;;;;;20827811;28;20309;-67
2021/06/13 23:33:35;;;;;;;2.28;1.80;;;27.20;99.90;;;;;;20829818;28;20202;-67
2021/06/13 23:43:40;;;;;;;2.88;1.85;;;27.40;99.90;;;;;;20827963;28;20507;-66
2021/06/13 23:53:44;;;;;;;3.15;1.33;;;27.50;99.90;;;;;;20827632;28;20209;-66
